createdAt,value
2022-10-16T00:00:33.315Z,15.18999958
2022-10-16T00:02:56.068Z,15.35999966
2022-10-16T00:03:36.934Z,15.36999989
2022-10-16T00:04:37.108Z,15.35999966
2022-10-16T00:05:38.699Z,15.27999973
2022-10-16T00:06:35.937Z,15.22000027
2022-10-16T00:07:40.745Z,15.14000034
2022-10-16T00:08:36.402Z,15.06000042
2022-10-16T00:09:46.274Z,15.01000023
2022-10-16T00:10:44.529Z,14.97000027
2022-10-16T00:12:43.245Z,14.90999985
2022-10-16T00:13:35.656Z,14.89000034
2022-10-16T00:14:35.039Z,14.85999966
2022-10-16T00:15:31.720Z,14.84000015
2022-10-16T00:17:29.423Z,14.80000019
2022-10-16T00:18:29.076Z,14.78999996
2022-10-16T00:19:24.437Z,14.77000046
2022-10-16T00:20:25.438Z,14.77000046
2022-10-16T00:22:26.803Z,14.75
2022-10-16T00:23:18.717Z,14.75
2022-10-16T00:24:19.289Z,14.75
2022-10-16T00:25:17.607Z,14.72999954
2022-10-16T00:26:19.557Z,14.72000027
2022-10-16T00:27:19.336Z,14.72000027
2022-10-16T00:28:13.590Z,14.69999981
2022-10-16T00:29:15.357Z,14.69999981
2022-10-16T00:30:13.301Z,14.68999958
2022-10-16T00:31:14.363Z,14.67000008
2022-10-16T00:32:05.809Z,14.67000008
2022-10-16T00:33:06.905Z,14.65999985
2022-10-16T00:34:07.266Z,14.64999962
2022-10-16T00:35:36.801Z,14.65999985
2022-10-16T00:36:16.774Z,14.67000008
2022-10-16T00:38:16.311Z,14.68999958
2022-10-16T00:39:15.839Z,14.67000008
2022-10-16T00:40:15.935Z,14.64999962
2022-10-16T00:41:13.822Z,14.63000011
2022-10-16T00:42:14.135Z,14.63000011
2022-10-16T00:43:14.416Z,14.60000038
2022-10-16T00:44:15.713Z,14.60000038
2022-10-16T00:45:09.734Z,14.60000038
2022-10-16T00:46:07.457Z,14.60000038
2022-10-16T00:48:10.997Z,14.60000038
2022-10-16T00:49:05.071Z,14.57999992
2022-10-16T00:50:11.269Z,14.57999992
2022-10-16T00:51:06.772Z,14.56999969
2022-10-16T00:53:07.637Z,14.53999996
2022-10-16T00:54:06.009Z,14.53999996
2022-10-16T00:55:05.883Z,14.53999996
2022-10-16T00:56:10.145Z,14.55000019
2022-10-16T00:58:06.381Z,14.55000019
2022-10-16T00:59:10.365Z,14.56999969
2022-10-16T01:00:05.539Z,14.60999966
2022-10-16T01:01:10.819Z,14.61999989
2022-10-16T01:03:20.409Z,14.60999966
2022-10-16T01:04:13.080Z,14.60000038
2022-10-16T01:05:11.714Z,14.59000015
2022-10-16T01:06:12.646Z,14.56000042
2022-10-16T01:08:14.355Z,14.53999996
2022-10-16T01:10:36.488Z,14.64000034
2022-10-16T01:12:21.575Z,14.68999958
2022-10-16T01:13:20.819Z,14.67000008
2022-10-16T01:14:32.308Z,14.63000011
2022-10-16T01:15:30.320Z,14.60999966
2022-10-16T01:17:33.123Z,14.55000019
2022-10-16T01:18:40.837Z,14.53999996
2022-10-16T01:19:41.440Z,14.53999996
2022-10-16T01:20:45.659Z,14.57999992
2022-10-16T01:22:57.184Z,14.55000019
2022-10-16T01:23:57.308Z,14.52999973
2022-10-16T01:24:58.798Z,14.5
2022-10-16T01:25:55.812Z,14.48999977
2022-10-16T01:27:09.062Z,14.47000027
2022-10-16T01:28:05.883Z,14.47000027
2022-10-16T01:29:05.035Z,14.47000027
2022-10-16T01:30:06.602Z,14.46000004
2022-10-16T01:31:03.692Z,14.44999981
2022-10-16T01:33:03.121Z,14.40999985
2022-10-16T01:34:09.528Z,14.39999962
2022-10-16T01:35:04.224Z,14.39000034
2022-10-16T01:36:05.065Z,14.39000034
2022-10-16T01:38:05.625Z,14.38000011
2022-10-16T01:39:07.245Z,14.38000011
2022-10-16T01:40:32.212Z,14.38000011
2022-10-16T01:41:11.980Z,14.39999962
2022-10-16T01:43:12.851Z,14.44999981
2022-10-16T01:44:09.123Z,14.43999958
2022-10-16T01:45:08.772Z,14.40999985
2022-10-16T01:46:08.004Z,14.39999962
2022-10-16T01:48:20.255Z,14.35999966
2022-10-16T01:49:16.501Z,14.32999992
2022-10-16T01:50:19.789Z,14.31999969
2022-10-16T01:51:16.287Z,14.31000042
2022-10-16T01:53:13.571Z,14.30000019
2022-10-16T01:54:13.538Z,14.28999996
2022-10-16T01:55:08.834Z,14.28999996
2022-10-16T01:56:07.203Z,14.28999996
2022-10-16T01:58:10.342Z,14.27000046
2022-10-16T01:59:13.544Z,14.27999973
2022-10-16T02:00:08.248Z,14.28999996
2022-10-16T02:01:12.999Z,14.30000019
2022-10-16T02:03:08.344Z,14.31999969
2022-10-16T02:04:01.257Z,14.31999969
2022-10-16T02:05:04.099Z,14.34000015
2022-10-16T02:06:05.815Z,14.34000015
2022-10-16T02:07:07.977Z,14.35000038
2022-10-16T02:08:05.563Z,14.34000015
2022-10-16T02:09:08.797Z,14.35000038
2022-10-16T02:10:08.896Z,14.35999966
2022-10-16T02:11:12.423Z,14.35999966
2022-10-16T02:13:05.565Z,14.38000011
2022-10-16T02:14:14.309Z,14.36999989
2022-10-16T02:15:13.653Z,14.36999989
2022-10-16T02:16:08.954Z,14.35999966
2022-10-16T02:18:06.851Z,14.38000011
2022-10-16T02:19:09.499Z,14.38000011
2022-10-16T02:20:06.113Z,14.35000038
2022-10-16T02:21:05.796Z,14.32999992
2022-10-16T02:22:01.969Z,14.31999969
2022-10-16T02:23:03.856Z,14.32999992
2022-10-16T02:24:00.170Z,14.31999969
2022-10-16T02:25:03.099Z,14.31000042
2022-10-16T02:25:56.530Z,14.31999969
2022-10-16T02:28:00.991Z,14.35000038
2022-10-16T02:29:03.219Z,14.34000015
2022-10-16T02:29:59.582Z,14.35000038
2022-10-16T02:31:04.053Z,14.36999989
2022-10-16T02:31:36.676Z,14.38000011
2022-10-16T02:33:18.825Z,14.46000004
2022-10-16T02:33:58.639Z,14.51000023
2022-10-16T02:34:56.195Z,14.53999996
2022-10-16T02:35:59.088Z,14.52000046
2022-10-16T02:36:55.546Z,14.52999973
2022-10-16T02:37:55.479Z,14.47999954
2022-10-16T02:38:52.353Z,14.47999954
2022-10-16T02:39:52.374Z,14.46000004
2022-10-16T02:40:53.001Z,14.46000004
2022-10-16T02:42:48.082Z,14.46000004
2022-10-16T02:43:50.546Z,14.46000004
2022-10-16T02:44:43.043Z,14.47000027
2022-10-16T02:45:47.435Z,14.47999954
2022-10-16T02:47:49.584Z,14.51000023
2022-10-16T02:48:47.691Z,14.5
2022-10-16T02:49:52.159Z,14.5
2022-10-16T02:50:49.375Z,14.5
2022-10-16T02:51:50.450Z,14.5
2022-10-16T02:52:47.764Z,14.5
2022-10-16T02:53:50.585Z,14.48999977
2022-10-16T02:54:47.043Z,14.51000023
2022-10-16T02:55:52.490Z,14.5
2022-10-16T02:56:44.963Z,14.48999977
2022-10-16T02:57:49.399Z,14.5
2022-10-16T02:58:43.825Z,14.52000046
2022-10-16T02:59:45.715Z,14.52000046
2022-10-16T03:00:42.047Z,14.53999996
2022-10-16T03:02:42.376Z,14.53999996
2022-10-16T03:03:38.082Z,14.52999973
2022-10-16T03:04:41.032Z,14.48999977
2022-10-16T03:05:40.633Z,14.51000023
2022-10-16T03:07:38.514Z,14.52000046
2022-10-16T03:08:50.538Z,14.56000042
2022-10-16T03:09:46.156Z,14.59000015
2022-10-16T03:10:51.614Z,14.57999992
2022-10-16T03:11:44.684Z,14.60000038
2022-10-16T03:12:44.062Z,14.60000038
2022-10-16T03:13:49.714Z,14.59000015
2022-10-16T03:14:44.363Z,14.59000015
2022-10-16T03:16:19.621Z,14.68000031
2022-10-16T03:18:05.188Z,14.80000019
2022-10-16T03:18:46.786Z,14.82999992
2022-10-16T03:19:46.040Z,14.78999996
2022-10-16T03:20:51.066Z,14.72000027
2022-10-16T03:21:55.343Z,14.71000004
2022-10-16T03:22:53.369Z,14.67000008
2022-10-16T03:23:56.568Z,14.64999962
2022-10-16T03:24:52.768Z,14.64000034
2022-10-16T03:25:53.941Z,14.61999989
2022-10-16T03:26:54.011Z,14.61999989
2022-10-16T03:27:58.491Z,14.56999969
2022-10-16T03:28:55.092Z,14.53999996
2022-10-16T03:29:57.986Z,14.52999973
2022-10-16T03:30:59.547Z,14.51000023
2022-10-16T03:31:57.734Z,14.5
2022-10-16T03:32:58.130Z,14.5
2022-10-16T03:33:56.458Z,14.48999977
2022-10-16T03:35:03.600Z,14.47999954
2022-10-16T03:35:59.902Z,14.47999954
2022-10-16T03:37:02.047Z,14.48999977
2022-10-16T03:38:00.950Z,14.46000004
2022-10-16T03:39:10.968Z,14.46000004
2022-10-16T03:40:05.743Z,14.47000027
2022-10-16T03:41:11.023Z,14.47000027
2022-10-16T03:43:09.054Z,14.47999954
2022-10-16T03:44:04.944Z,14.47999954
2022-10-16T03:45:07.472Z,14.47000027
2022-10-16T03:46:10.369Z,14.46000004
2022-10-16T03:47:05.828Z,14.47999954
2022-10-16T03:48:12.735Z,14.46000004
2022-10-16T03:49:08.862Z,14.46000004
2022-10-16T03:50:09.043Z,14.47000027
2022-10-16T03:51:10.462Z,14.47999954
2022-10-16T03:53:14.141Z,14.47000027
2022-10-16T03:54:07.925Z,14.47000027
2022-10-16T03:55:14.522Z,14.46000004
2022-10-16T03:56:11.045Z,14.47000027
2022-10-16T03:57:53.845Z,14.52000046
2022-10-16T03:59:27.312Z,14.72000027
2022-10-16T04:01:09.335Z,14.88000011
2022-10-16T04:05:07.078Z,15.19999981
2022-10-16T04:05:26.369Z,15.27000046
2022-10-16T04:06:28.446Z,15.31999969
2022-10-16T04:07:28.941Z,15.28999996
2022-10-16T04:08:25.507Z,15.15999985
2022-10-16T04:09:24.954Z,15.05000019
2022-10-16T04:10:20.229Z,15.01000023
2022-10-16T04:11:24.164Z,14.90999985
2022-10-16T04:12:27.638Z,14.84000015
2022-10-16T04:13:25.603Z,14.77000046
2022-10-16T04:14:24.746Z,14.72999954
2022-10-16T04:15:18.514Z,14.69999981
2022-10-16T04:17:21.625Z,14.63000011
2022-10-16T04:18:15.870Z,14.59000015
2022-10-16T04:19:21.250Z,14.55000019
2022-10-16T04:20:17.465Z,14.53999996
2022-10-16T04:21:19.322Z,14.51000023
2022-10-16T04:22:21.765Z,14.47000027
2022-10-16T04:23:17.987Z,14.44999981
2022-10-16T04:24:16.148Z,14.43999958
2022-10-16T04:25:09.664Z,14.39000034
2022-10-16T04:26:16.099Z,14.39999962
2022-10-16T04:28:12.229Z,14.35999966
2022-10-16T04:29:13.161Z,14.32999992
2022-10-16T04:30:06.879Z,14.31000042
2022-10-16T04:31:13.194Z,14.27999973
2022-10-16T04:32:07.777Z,14.27999973
2022-10-16T04:33:58.877Z,14.27999973
2022-10-16T04:34:58.267Z,14.26000023
2022-10-16T04:36:38.622Z,14.23999977
2022-10-16T04:38:05.811Z,14.38000011
2022-10-16T04:39:05.579Z,14.39999962
2022-10-16T04:40:07.732Z,14.39000034
2022-10-16T04:41:04.172Z,14.31999969
2022-10-16T04:42:06.233Z,14.31000042
2022-10-16T04:43:06.424Z,14.32999992
2022-10-16T04:44:06.106Z,14.32999992
2022-10-16T04:45:02.511Z,14.31999969
2022-10-16T04:46:03.120Z,14.28999996
2022-10-16T04:48:03.202Z,14.26000023
2022-10-16T04:49:01.314Z,14.25
2022-10-16T04:50:04.828Z,14.22999954
2022-10-16T04:51:10.094Z,14.22000027
2022-10-16T04:53:03.613Z,14.21000004
2022-10-16T04:54:06.179Z,14.19999981
2022-10-16T04:55:01.070Z,14.14999962
2022-10-16T04:56:04.593Z,14.14999962
2022-10-16T04:58:02.688Z,14.18000031
2022-10-16T04:59:02.090Z,14.18999958
2022-10-16T05:00:02.724Z,14.17000008
2022-10-16T05:00:59.217Z,14.15999985
2022-10-16T05:02:54.621Z,14.15999985
2022-10-16T05:03:57.947Z,14.15999985
2022-10-16T05:04:59.712Z,14.15999985
2022-10-16T05:06:02.912Z,14.14999962
2022-10-16T05:07:01.325Z,14.15999985
2022-10-16T05:08:04.307Z,14.14999962
2022-10-16T05:09:07.586Z,14.10999966
2022-10-16T05:10:11.749Z,14.09000015
2022-10-16T05:11:06.200Z,14.10000038
2022-10-16T05:12:06.430Z,14.11999989
2022-10-16T05:13:09.409Z,14.10000038
2022-10-16T05:15:08.811Z,14.15999985
2022-10-16T05:15:49.219Z,14.27000046
2022-10-16T05:17:47.241Z,14.36999989
2022-10-16T05:18:44.854Z,14.35000038
2022-10-16T05:19:44.836Z,14.31000042
2022-10-16T05:20:40.692Z,14.30000019
2022-10-16T05:21:40.729Z,14.27999973
2022-10-16T05:22:38.025Z,14.26000023
2022-10-16T05:23:38.537Z,14.23999977
2022-10-16T05:24:33.946Z,14.19999981
2022-10-16T05:25:34.351Z,14.18000031
2022-10-16T05:27:31.822Z,14.18000031
2022-10-16T05:28:29.677Z,14.15999985
2022-10-16T05:29:24.150Z,14.13000011
2022-10-16T05:30:20.879Z,14.13000011
2022-10-16T05:31:22.560Z,14.10999966
2022-10-16T05:32:17.768Z,14.13000011
2022-10-16T05:33:16.698Z,14.10000038
2022-10-16T05:34:13.766Z,14.09000015
2022-10-16T05:35:13.073Z,14.07999992
2022-10-16T05:36:11.970Z,14.07999992
2022-10-16T05:37:07.833Z,14.07999992
2022-10-16T05:38:10.294Z,14.07999992
2022-10-16T05:39:10.453Z,14.05000019
2022-10-16T05:40:06.822Z,14.03999996
2022-10-16T05:41:09.720Z,14.05000019
2022-10-16T05:43:06.336Z,14.06000042
2022-10-16T05:44:00.704Z,14.06000042
2022-10-16T05:44:57.544Z,14.06000042
2022-10-16T05:46:00.908Z,14.02999973
2022-10-16T05:47:59.954Z,14.03999996
2022-10-16T05:48:54.582Z,14.03999996
2022-10-16T05:50:00.976Z,14
2022-10-16T05:51:01.069Z,13.97999954
2022-10-16T05:51:58.822Z,14
2022-10-16T05:52:58.745Z,13.98999977
2022-10-16T05:53:59.347Z,13.98999977
2022-10-16T05:55:01.454Z,13.90999985
2022-10-16T05:55:58.089Z,13.92000008
2022-10-16T05:57:52.841Z,13.94999981
2022-10-16T05:59:27.534Z,14.14999962
2022-10-16T06:00:34.443Z,14.39999962
2022-10-16T06:02:29.205Z,14.68999958
2022-10-16T06:03:24.001Z,14.68999958
2022-10-16T06:04:24.489Z,14.61999989
2022-10-16T06:05:20.034Z,14.48999977
2022-10-16T06:06:44.479Z,14.40999985
2022-10-16T06:07:25.621Z,14.39000034
2022-10-16T06:08:25.616Z,14.36999989
2022-10-16T06:09:20.658Z,14.36999989
2022-10-16T06:10:25.354Z,14.32999992
2022-10-16T06:11:26.244Z,14.28999996
2022-10-16T06:12:23.443Z,14.26000023
2022-10-16T06:13:25.857Z,14.23999977
2022-10-16T06:14:20.180Z,14.21000004
2022-10-16T06:15:18.841Z,14.21000004
2022-10-16T06:16:14.053Z,14.17000008
2022-10-16T06:17:13.348Z,14.18000031
2022-10-16T06:18:13.774Z,14.17000008
2022-10-16T06:19:09.168Z,14.14000034
2022-10-16T06:20:11.439Z,14.10999966
2022-10-16T06:21:09.723Z,14.10000038
2022-10-16T06:23:13.902Z,14.10999966
2022-10-16T06:24:12.186Z,14.09000015
2022-10-16T06:25:11.899Z,14.09000015
2022-10-16T06:26:15.562Z,14.07999992
2022-10-16T06:28:14.034Z,14.05000019
2022-10-16T06:29:12.302Z,14.03999996
2022-10-16T06:30:15.177Z,14.02999973
2022-10-16T06:31:15.699Z,14.02999973
2022-10-16T06:33:14.225Z,14.01000023
2022-10-16T06:34:12.453Z,14.01000023
2022-10-16T06:35:15.835Z,14.01000023
2022-10-16T06:36:11.124Z,14.01000023
2022-10-16T06:37:47.999Z,14.10000038
2022-10-16T06:38:43.787Z,14.18999958
2022-10-16T06:39:46.147Z,14.22999954
2022-10-16T06:40:41.771Z,14.22000027
2022-10-16T06:42:38.418Z,14.19999981
2022-10-16T06:43:36.778Z,14.19999981
2022-10-16T06:44:39.487Z,14.21000004
2022-10-16T06:46:26.634Z,14.25
2022-10-16T06:48:03.323Z,14.31999969
2022-10-16T06:49:07.165Z,14.31999969
2022-10-16T06:50:03.445Z,14.30000019
2022-10-16T06:51:02.365Z,14.28999996
2022-10-16T06:52:56.094Z,14.26000023
2022-10-16T06:54:03.256Z,14.27000046
2022-10-16T06:54:04.484Z,14.27000046
2022-10-16T06:54:06.644Z,14.27000046
2022-10-16T06:54:51.092Z,14.27999973
2022-10-16T06:55:50.326Z,14.27999973
2022-10-16T06:56:45.681Z,14.28999996
2022-10-16T06:57:45.273Z,14.27999973
2022-10-16T06:58:40.054Z,14.27000046
2022-10-16T06:59:37.208Z,14.27999973
2022-10-16T07:00:34.151Z,14.28999996
2022-10-16T07:02:30.537Z,14.30000019
2022-10-16T07:03:26.889Z,14.28999996
2022-10-16T07:04:25.815Z,14.27000046
2022-10-16T07:05:21.167Z,14.27999973
2022-10-16T07:06:20.090Z,14.27000046
2022-10-16T07:07:14.656Z,14.27999973
2022-10-16T07:08:14.996Z,14.22999954
2022-10-16T07:09:10.342Z,14.23999977
2022-10-16T07:10:09.923Z,14.23999977
2022-10-16T07:11:05.597Z,14.23999977
2022-10-16T07:12:08.453Z,14.25
2022-10-16T07:13:00.270Z,14.25
2022-10-16T07:13:59.756Z,14.27000046
2022-10-16T07:14:54.211Z,14.26000023
2022-10-16T07:15:53.651Z,14.28999996
2022-10-16T07:17:50.140Z,14.26000023
2022-10-16T07:18:44.733Z,14.27000046
2022-10-16T07:19:41.966Z,14.28999996
2022-10-16T07:20:41.381Z,14.26000023
2022-10-16T07:22:41.530Z,14.26000023
2022-10-16T07:23:34.136Z,14.26000023
2022-10-16T07:24:36.071Z,14.27999973
2022-10-16T07:25:31.254Z,14.28999996
2022-10-16T07:26:28.285Z,14.30000019
2022-10-16T07:27:27.390Z,14.30000019
2022-10-16T07:28:23.431Z,14.30000019
2022-10-16T07:29:28.271Z,14.27999973
2022-10-16T07:31:01.284Z,14.43999958
2022-10-16T07:32:04.620Z,14.71000004
2022-10-16T07:33:28.275Z,15
2022-10-16T07:34:09.929Z,15.09000015
2022-10-16T07:35:06.339Z,15.07999992
2022-10-16T07:36:06.428Z,14.98999977
2022-10-16T07:37:00.928Z,14.93000031
2022-10-16T07:37:59.121Z,14.88000011
2022-10-16T07:38:55.634Z,14.80000019
2022-10-16T07:39:00.005Z,14.80000019
2022-10-16T07:39:53.099Z,14.77000046
2022-10-16T07:40:46.722Z,14.76000023
2022-10-16T07:41:48.085Z,14.68999958
2022-10-16T07:42:39.618Z,14.68999958
2022-10-16T07:43:38.265Z,14.67000008
2022-10-16T07:44:33.546Z,14.64000034
2022-10-16T07:45:31.755Z,14.61999989
2022-10-16T07:46:26.298Z,14.60000038
2022-10-16T07:48:17.900Z,14.60999966
2022-10-16T07:49:16.991Z,14.60000038
2022-10-16T07:50:15.526Z,14.59000015
2022-10-16T07:51:09.111Z,14.57999992
2022-10-16T07:53:04.189Z,14.56999969
2022-10-16T07:54:05.242Z,14.55000019
2022-10-16T07:54:56.680Z,14.56999969
2022-10-16T07:55:54.405Z,14.59000015
2022-10-16T07:56:53.931Z,14.57999992
2022-10-16T07:57:46.028Z,14.59000015
2022-10-16T07:58:43.384Z,14.60999966
2022-10-16T07:59:41.368Z,14.59000015
2022-10-16T08:00:34.943Z,14.57999992
2022-10-16T08:02:27.934Z,14.60999966
2022-10-16T08:03:24.975Z,14.60999966
2022-10-16T08:04:22.007Z,14.61999989
2022-10-16T08:05:15.574Z,14.59000015
2022-10-16T08:06:47.793Z,14.60999966
2022-10-16T08:07:28.005Z,14.67000008
2022-10-16T08:08:28.028Z,14.72000027
2022-10-16T08:09:22.998Z,14.75
2022-10-16T08:10:20.827Z,14.77000046
2022-10-16T08:11:22.420Z,14.76000023
2022-10-16T08:13:22.126Z,14.76000023
2022-10-16T08:14:15.643Z,14.78999996
2022-10-16T08:15:15.719Z,14.80000019
2022-10-16T08:16:11.058Z,14.81000042
2022-10-16T08:18:07.267Z,14.85000038
2022-10-16T08:19:06.430Z,14.85000038
2022-10-16T08:20:01.567Z,14.86999989
2022-10-16T08:21:00.972Z,14.89999962
2022-10-16T08:21:57.792Z,14.89999962
2022-10-16T08:23:01.713Z,14.89000034
2022-10-16T08:23:58.399Z,14.90999985
2022-10-16T08:24:55.858Z,14.93000031
2022-10-16T08:25:52.038Z,14.93999958
2022-10-16T08:27:49.327Z,14.97000027
2022-10-16T08:28:48.628Z,15
2022-10-16T08:29:44.166Z,15.05000019
2022-10-16T08:30:44.174Z,15.06000042
2022-10-16T08:31:39.370Z,15.06999969
2022-10-16T08:32:39.513Z,15.09000015
2022-10-16T08:33:34.860Z,15.11999989
2022-10-16T08:34:35.006Z,15.15999985
2022-10-16T08:35:31.220Z,15.18999958
2022-10-16T08:36:29.916Z,15.19999981
2022-10-16T08:37:32.868Z,15.22000027
2022-10-16T08:38:26.362Z,15.25
2022-10-16T08:39:29.180Z,15.31000042
2022-10-16T08:41:25.754Z,15.47999954
2022-10-16T08:43:58.372Z,15.88000011
2022-10-16T08:46:01.838Z,16.12999916
2022-10-16T08:46:07.458Z,16.29000092
2022-10-16T08:48:07.534Z,16.55999947
2022-10-16T08:49:04.462Z,16.63999939
2022-10-16T08:50:04.650Z,16.69000053
2022-10-16T08:51:00.701Z,16.62999916
2022-10-16T08:52:57.464Z,16.69000053
2022-10-16T08:53:31.846Z,16.70999908
2022-10-16T08:54:31.771Z,16.73999977
2022-10-16T08:55:26.951Z,16.77000046
2022-10-16T08:56:26.992Z,16.72999954
2022-10-16T08:57:24.364Z,16.70999908
2022-10-16T08:58:21.985Z,16.73999977
2022-10-16T08:59:16.894Z,16.71999931
2022-10-16T09:00:13.966Z,16.71999931
2022-10-16T09:01:13.715Z,16.68000031
2022-10-16T09:03:05.759Z,16.62999916
2022-10-16T09:04:05.036Z,16.59000015
2022-10-16T09:04:59.689Z,16.59000015
2022-10-16T09:05:56.767Z,16.54000092
2022-10-16T09:06:55.944Z,16.52000046
2022-10-16T09:07:50.423Z,16.5
2022-10-16T09:08:47.843Z,16.51000023
2022-10-16T09:09:46.831Z,16.48999977
2022-10-16T09:10:41.401Z,16.51000023
2022-10-16T09:11:37.866Z,16.48999977
2022-10-16T09:12:36.730Z,16.48999977
2022-10-16T09:15:03.327Z,16.54000092
2022-10-16T09:15:09.132Z,16.62999916
2022-10-16T09:16:07.789Z,16.79000092
2022-10-16T09:18:03.509Z,16.80999947
2022-10-16T09:19:03.697Z,16.79000092
2022-10-16T09:19:59.210Z,16.79000092
2022-10-16T09:20:59.505Z,16.77000046
2022-10-16T09:21:55.734Z,16.73999977
2022-10-16T09:22:55.504Z,16.75
2022-10-16T09:23:51.049Z,16.73999977
2022-10-16T09:24:54.389Z,16.76000023
2022-10-16T09:25:47.015Z,16.76000023
2022-10-16T09:26:49.709Z,16.75
2022-10-16T09:27:42.685Z,16.77000046
2022-10-16T09:28:43.259Z,16.79999924
2022-10-16T09:29:39.321Z,16.80999947
2022-10-16T09:30:38.605Z,16.79999924
2022-10-16T09:31:34.449Z,16.79999924
2022-10-16T09:32:34.635Z,16.80999947
2022-10-16T09:33:30.071Z,16.81999969
2022-10-16T09:34:30.376Z,16.84000015
2022-10-16T09:35:26.515Z,16.86000061
2022-10-16T09:36:28.753Z,16.85000038
2022-10-16T09:38:21.406Z,16.88999939
2022-10-16T09:39:21.099Z,16.88999939
2022-10-16T09:40:16.617Z,16.94000053
2022-10-16T09:41:13.957Z,16.95000076
2022-10-16T09:42:13.548Z,16.94000053
2022-10-16T09:43:08.707Z,16.93000031
2022-10-16T09:44:08.033Z,16.92000008
2022-10-16T09:45:38.633Z,16.89999962
2022-10-16T09:46:18.125Z,16.92000008
2022-10-16T09:47:16.486Z,16.95000076
2022-10-16T09:48:16.765Z,16.95999908
2022-10-16T09:49:12.227Z,16.95999908
2022-10-16T09:50:13.325Z,16.98999977
2022-10-16T09:51:08.636Z,16.97999954
2022-10-16T09:53:04.412Z,16.98999977
2022-10-16T09:54:04.848Z,17.01000023
2022-10-16T09:55:00.322Z,17.01000023
2022-10-16T09:56:03.144Z,17.03000069
2022-10-16T09:56:56.353Z,17.03000069
2022-10-16T09:57:56.264Z,17.04000092
2022-10-16T09:58:52.191Z,17.05999947
2022-10-16T09:59:51.863Z,17.05999947
2022-10-16T10:00:47.395Z,17.07999992
2022-10-16T10:02:43.483Z,17.09000015
2022-10-16T10:03:43.978Z,17.12000084
2022-10-16T10:04:39.396Z,17.12000084
2022-10-16T10:05:43.259Z,17.11000061
2022-10-16T10:06:37.497Z,17.12999916
2022-10-16T10:07:36.984Z,17.14999962
2022-10-16T10:08:32.559Z,17.18000031
2022-10-16T10:09:32.798Z,17.20999908
2022-10-16T10:10:30.205Z,17.20000076
2022-10-16T10:11:31.790Z,17.19000053
2022-10-16T10:13:28.213Z,17.23999977
2022-10-16T10:14:21.741Z,17.26000023
2022-10-16T10:15:24.993Z,17.27000046
2022-10-16T10:16:19.207Z,17.28000069
2022-10-16T10:17:22.029Z,17.30999947
2022-10-16T10:18:17.262Z,17.38999939
2022-10-16T10:19:17.337Z,17.45000076
2022-10-16T10:20:13.109Z,17.48999977
2022-10-16T10:21:11.763Z,17.48999977
2022-10-16T10:23:09.670Z,17.51000023
2022-10-16T10:24:13.783Z,17.54999924
2022-10-16T10:26:12.493Z,17.64999962
2022-10-16T10:26:30.194Z,17.76000023
2022-10-16T10:28:29.252Z,17.89999962
2022-10-16T10:29:25.759Z,17.92000008
2022-10-16T10:30:25.680Z,17.90999985
2022-10-16T10:31:21.855Z,17.88999939
2022-10-16T10:33:18.903Z,17.90999985
2022-10-16T10:34:19.889Z,17.92000008
2022-10-16T10:35:16.158Z,17.90999985
2022-10-16T10:36:17.462Z,17.96999931
2022-10-16T10:38:13.817Z,18.04000092
2022-10-16T10:39:10.001Z,18.04000092
2022-10-16T10:40:09.261Z,18.04000092
2022-10-16T10:41:04.525Z,17.95999908
2022-10-16T10:42:04.015Z,17.92000008
2022-10-16T10:43:02.284Z,17.86000061
2022-10-16T10:43:57.686Z,17.85000038
2022-10-16T10:44:57.242Z,17.82999992
2022-10-16T10:45:53.505Z,17.79999924
2022-10-16T10:46:54.910Z,17.75
2022-10-16T10:47:47.629Z,17.77000046
2022-10-16T10:48:50.832Z,17.80999947
2022-10-16T10:49:46.694Z,17.85000038
2022-10-16T10:50:44.116Z,17.86000061
2022-10-16T10:52:39.380Z,17.89999962
2022-10-16T10:53:34.944Z,17.90999985
2022-10-16T10:54:37.593Z,17.89999962
2022-10-16T10:55:30.251Z,17.90999985
2022-10-16T10:56:32.677Z,17.88999939
2022-10-16T10:58:29.913Z,17.88999939
2022-10-16T10:58:35.125Z,17.88999939
2022-10-16T10:59:20.314Z,17.89999962
2022-10-16T11:00:20.254Z,17.94000053
2022-10-16T11:01:16.450Z,17.95999908
2022-10-16T11:03:10.560Z,17.96999931
2022-10-16T11:04:08.187Z,18
2022-10-16T11:05:07.961Z,17.97999954
2022-10-16T11:06:02.874Z,17.98999977
2022-10-16T11:08:40.911Z,18.13999939
2022-10-16T11:09:36.380Z,18.20000076
2022-10-16T11:10:35.303Z,18.21999931
2022-10-16T11:11:30.861Z,18.20999908
2022-10-16T11:12:33.121Z,18.22999954
2022-10-16T11:13:25.980Z,18.21999931
2022-10-16T11:14:25.586Z,18.20999908
2022-10-16T11:15:20.962Z,18.22999954
2022-10-16T11:16:21.764Z,18.18000031
2022-10-16T11:17:59.465Z,18.21999931
2022-10-16T11:18:39.107Z,18.25
2022-10-16T11:19:38.273Z,18.26000023
2022-10-16T11:20:35.532Z,18.26000023
2022-10-16T11:21:35.534Z,18.22999954
2022-10-16T11:22:30.831Z,18.21999931
2022-10-16T11:23:32.904Z,18.20999908
2022-10-16T11:24:25.451Z,18.20999908
2022-10-16T11:25:25.535Z,18.23999977
2022-10-16T11:26:37.170Z,18.25
2022-10-16T11:27:37.565Z,18.31999969
2022-10-16T11:28:33.133Z,18.37999916
2022-10-16T11:29:35.765Z,18.38999939
2022-10-16T11:30:28.206Z,18.37999916
2022-10-16T11:31:28.333Z,18.36000061
2022-10-16T11:33:23.707Z,18.31999969
2022-10-16T11:34:18.841Z,18.29999924
2022-10-16T11:35:18.408Z,18.28000069
2022-10-16T11:36:13.856Z,18.25
2022-10-16T11:37:14.157Z,18.23999977
2022-10-16T11:38:12.007Z,18.20000076
2022-10-16T11:39:06.994Z,18.17000008
2022-10-16T11:40:08.964Z,18.14999962
2022-10-16T11:41:01.688Z,18.12000084
2022-10-16T11:42:03.623Z,18.12000084
2022-10-16T11:42:56.074Z,18.12000084
2022-10-16T11:43:58.213Z,18.10000038
2022-10-16T11:44:50.778Z,18.09000015
2022-10-16T11:45:47.559Z,18.06999969
2022-10-16T11:47:59.327Z,18.11000061
2022-10-16T11:47:59.363Z,18.11000061
2022-10-16T11:47:59.976Z,18.11000061
2022-10-16T11:49:19.407Z,18.18000031
2022-10-16T11:49:59.095Z,18.20999908
2022-10-16T11:50:58.630Z,18.23999977
2022-10-16T11:52:37.584Z,18.23999977
2022-10-16T11:53:17.533Z,18.23999977
2022-10-16T11:54:16.731Z,18.23999977
2022-10-16T11:55:14.490Z,18.23999977
2022-10-16T11:56:13.386Z,18.22999954
2022-10-16T11:58:07.771Z,18.17000008
2022-10-16T11:59:08.036Z,18.13999939
2022-10-16T12:00:03.363Z,18.15999985
2022-10-16T12:01:02.904Z,18.12999916
2022-10-16T12:01:57.816Z,18.12000084
2022-10-16T12:02:57.698Z,18.10000038
2022-10-16T12:03:53.214Z,18.10000038
2022-10-16T12:04:52.859Z,18.10000038
2022-10-16T12:05:50.346Z,18.06999969